createdAt,value
2018-09-01T00:00:27.458Z,99.90
2018-09-01T00:02:55.820Z,99.90
2018-09-01T00:05:24.271Z,99.90
2018-09-01T00:07:52.587Z,99.90
2018-09-01T00:10:20.937Z,99.90
2018-09-01T00:12:49.251Z,99.90
2018-09-01T00:15:17.611Z,99.90
2018-09-01T00:17:45.933Z,99.90
2018-09-01T00:20:14.344Z,99.90
2018-09-01T00:22:42.704Z,99.90
2018-09-01T00:25:11.105Z,99.90
2018-09-01T00:27:39.431Z,99.90
2018-09-01T00:30:07.946Z,99.90
2018-09-01T00:32:36.318Z,99.90
2018-09-01T00:35:04.823Z,99.90
2018-09-01T00:37:38.634Z,99.90
2018-09-01T00:40:07.115Z,99.90
2018-09-01T00:42:35.449Z,99.90
2018-09-01T00:45:03.881Z,99.90
2018-09-01T00:47:32.203Z,99.90
2018-09-01T00:50:00.564Z,99.90
2018-09-01T00:52:28.875Z,99.90
2018-09-01T00:54:57.247Z,99.90
2018-09-01T00:57:25.633Z,99.90
2018-09-01T00:59:53.994Z,99.90
2018-09-01T01:02:22.340Z,99.90
2018-09-01T01:04:50.792Z,99.90
2018-09-01T01:07:19.197Z,99.90
2018-09-01T01:09:47.517Z,99.90
2018-09-01T01:12:15.971Z,99.90
2018-09-01T01:14:44.368Z,99.90
2018-09-01T01:17:12.868Z,99.90
2018-09-01T01:19:41.636Z,99.90
2018-09-01T01:22:10.017Z,99.90
2018-09-01T01:24:38.384Z,99.90
2018-09-01T01:27:06.761Z,99.90
2018-09-01T01:29:35.112Z,99.90
2018-09-01T01:32:03.473Z,99.90
2018-09-01T01:34:31.844Z,99.90
2018-09-01T01:37:00.203Z,99.90
2018-09-01T01:39:28.598Z,99.90
2018-09-01T01:41:56.974Z,99.90
2018-09-01T01:44:25.395Z,99.90
2018-09-01T01:46:53.724Z,99.90
2018-09-01T01:49:22.085Z,99.90
2018-09-01T01:51:50.457Z,99.90
2018-09-01T01:54:18.828Z,99.90
2018-09-01T01:56:47.212Z,99.90
2018-09-01T01:59:15.568Z,99.90
2018-09-01T02:01:43.900Z,99.90
2018-09-01T02:04:12.239Z,99.90
2018-09-01T02:06:40.612Z,99.90
2018-09-01T02:09:08.960Z,99.90
2018-09-01T02:11:37.325Z,99.90
2018-09-01T02:14:06.034Z,99.90
2018-09-01T02:16:34.438Z,99.90
2018-09-01T02:19:02.805Z,99.90
2018-09-01T02:21:31.150Z,99.90
2018-09-01T02:23:59.495Z,99.90
2018-09-01T02:26:27.871Z,99.90
2018-09-01T02:28:56.240Z,99.90
2018-09-01T02:31:24.635Z,99.90
2018-09-01T02:33:52.992Z,99.90
2018-09-01T02:36:21.436Z,99.90
2018-09-01T02:38:49.806Z,99.90
2018-09-01T02:41:18.204Z,99.90
2018-09-01T02:43:46.606Z,99.90
2018-09-01T02:46:14.981Z,99.90
2018-09-01T02:48:43.336Z,99.90
2018-09-01T02:51:11.687Z,99.90
2018-09-01T02:53:40.033Z,99.90
2018-09-01T02:56:08.452Z,99.90
2018-09-01T02:58:36.881Z,99.90
2018-09-01T03:01:10.845Z,99.90
2018-09-01T03:03:39.202Z,99.90
2018-09-01T03:06:07.305Z,99.90
2018-09-01T03:08:35.665Z,99.90
2018-09-01T03:11:04.033Z,99.90
2018-09-01T03:13:32.368Z,99.90
2018-09-01T03:16:00.716Z,99.90
2018-09-01T03:18:29.053Z,99.90
2018-09-01T03:20:57.416Z,99.90
2018-09-01T03:23:25.780Z,99.90
2018-09-01T03:25:54.250Z,99.90
2018-09-01T03:28:22.628Z,99.90
2018-09-01T03:30:51.005Z,99.90
2018-09-01T03:33:19.375Z,99.90
2018-09-01T03:35:47.708Z,99.90
2018-09-01T03:38:16.093Z,99.90
2018-09-01T03:40:44.479Z,99.90
2018-09-01T03:43:12.842Z,99.90
2018-09-01T03:45:41.219Z,99.90
2018-09-01T03:48:09.560Z,99.90
2018-09-01T03:50:37.963Z,99.90
2018-09-01T03:53:06.335Z,99.90
2018-09-01T03:55:34.704Z,99.90
2018-09-01T03:58:03.228Z,99.90
2018-09-01T04:00:31.608Z,99.90
2018-09-01T04:03:00.021Z,99.90
2018-09-01T04:05:28.459Z,99.90
2018-09-01T04:07:56.785Z,99.90
2018-09-01T04:10:25.261Z,99.90
2018-09-01T04:12:53.623Z,99.90
2018-09-01T04:15:22.043Z,99.90
2018-09-01T04:17:50.385Z,99.90
2018-09-01T04:20:18.757Z,99.90
2018-09-01T04:22:47.064Z,99.90
2018-09-01T04:25:15.603Z,99.90
2018-09-01T04:27:43.964Z,99.90
2018-09-01T04:30:12.313Z,99.90
2018-09-01T04:32:40.633Z,99.90
2018-09-01T04:35:09.006Z,99.90
2018-09-01T04:37:37.371Z,99.90
2018-09-01T04:40:05.917Z,99.90
2018-09-01T04:42:34.315Z,99.90
2018-09-01T04:45:02.707Z,99.90
2018-09-01T04:47:31.063Z,99.90
2018-09-01T04:49:59.443Z,99.90
2018-09-01T04:52:27.817Z,99.90
2018-09-01T04:54:56.159Z,99.90
2018-09-01T04:57:24.530Z,99.90
2018-09-01T04:59:52.883Z,99.90
2018-09-01T05:02:21.214Z,99.90
2018-09-01T05:04:49.642Z,99.90
2018-09-01T05:07:18.014Z,99.90
2018-09-01T05:09:46.346Z,99.90
2018-09-01T05:12:14.710Z,99.90
2018-09-01T05:14:43.085Z,99.90
2018-09-01T05:17:11.499Z,99.90
2018-09-01T05:19:39.895Z,99.90
2018-09-01T05:22:08.264Z,99.90
2018-09-01T05:24:36.627Z,99.90
2018-09-01T05:27:05.080Z,99.90
2018-09-01T05:29:33.512Z,99.90
2018-09-01T05:32:01.846Z,99.90
2018-09-01T05:34:30.360Z,99.90
2018-09-01T05:36:58.742Z,99.90
2018-09-01T05:39:27.090Z,99.90
2018-09-01T05:41:55.465Z,99.90
2018-09-01T05:44:23.838Z,99.90
2018-09-01T05:46:52.159Z,99.90
2018-09-01T05:49:20.506Z,99.90
2018-09-01T05:51:48.859Z,99.90
2018-09-01T05:54:17.258Z,99.90
2018-09-01T05:56:45.698Z,99.90
2018-09-01T05:59:14.062Z,99.90
2018-09-01T06:01:42.519Z,99.90
2018-09-01T06:04:10.901Z,99.90
2018-09-01T06:06:39.377Z,99.90
2018-09-01T06:09:09.356Z,99.90
2018-09-01T06:11:37.723Z,99.90
2018-09-01T06:14:06.653Z,99.90
2018-09-01T06:16:35.063Z,99.90
2018-09-01T06:19:03.649Z,99.90
2018-09-01T06:21:32.024Z,99.90
2018-09-01T06:24:00.453Z,99.90
2018-09-01T06:26:28.816Z,99.90
2018-09-01T06:29:02.520Z,99.90
2018-09-01T06:31:30.918Z,99.90
2018-09-01T06:33:59.272Z,99.90
2018-09-01T06:36:27.595Z,99.90
2018-09-01T06:38:55.965Z,99.90
2018-09-01T06:41:24.327Z,99.90
2018-09-01T06:43:52.675Z,99.90
2018-09-01T06:46:21.045Z,99.90
2018-09-01T06:48:49.804Z,99.90
2018-09-01T06:51:18.142Z,99.90
2018-09-01T06:53:46.561Z,99.90
2018-09-01T06:56:14.988Z,99.90
2018-09-01T06:58:43.430Z,99.90
2018-09-01T07:01:11.761Z,99.90
2018-09-01T07:03:40.172Z,99.90
2018-09-01T07:06:08.504Z,99.90
2018-09-01T07:08:36.930Z,99.90
2018-09-01T07:11:05.261Z,99.90
2018-09-01T07:13:33.595Z,99.90
2018-09-01T07:16:01.945Z,99.90
2018-09-01T07:18:30.296Z,99.90
2018-09-01T07:20:58.684Z,99.90
2018-09-01T07:23:27.032Z,99.90
2018-09-01T07:25:55.436Z,99.90
2018-09-01T07:28:23.807Z,99.90
2018-09-01T07:30:52.545Z,99.90
2018-09-01T07:33:20.784Z,99.90
2018-09-01T07:35:49.209Z,99.90
2018-09-01T07:38:17.591Z,99.90
2018-09-01T07:40:46.107Z,99.90
2018-09-01T07:43:14.502Z,99.90
2018-09-01T07:45:42.971Z,99.90
2018-09-01T07:48:11.364Z,99.90
2018-09-01T07:50:39.700Z,99.90
2018-09-01T07:53:08.065Z,99.90
2018-09-01T07:55:36.472Z,99.90
2018-09-01T07:58:04.878Z,99.90
2018-09-01T08:00:33.268Z,99.90
2018-09-01T08:03:01.619Z,99.90
2018-09-01T08:05:29.995Z,99.90
2018-09-01T08:07:58.334Z,99.90
2018-09-01T08:10:26.985Z,99.90
2018-09-01T08:12:55.354Z,99.90
2018-09-01T08:15:23.776Z,99.90
2018-09-01T08:17:52.284Z,99.90
2018-09-01T08:20:20.788Z,99.90
2018-09-01T08:22:49.376Z,99.90
2018-09-01T08:25:17.827Z,99.90
2018-09-01T08:27:46.277Z,99.90
2018-09-01T08:30:14.645Z,99.90
2018-09-01T08:32:43.000Z,99.90
2018-09-01T08:35:11.412Z,99.90
2018-09-01T08:37:40.824Z,99.90
2018-09-01T08:40:09.194Z,99.90
2018-09-01T08:42:37.550Z,99.90
2018-09-01T08:45:06.088Z,99.90
2018-09-01T08:47:34.440Z,99.90
2018-09-01T08:50:02.890Z,99.90
2018-09-01T08:52:31.234Z,99.90
2018-09-01T08:54:59.575Z,99.90
2018-09-01T08:57:27.927Z,99.90
2018-09-01T08:59:56.272Z,99.90
2018-09-01T09:02:24.766Z,99.90
2018-09-01T09:04:53.104Z,99.90
2018-09-01T09:07:21.433Z,99.90
2018-09-01T09:09:50.003Z,99.90
2018-09-01T09:12:18.382Z,99.90
2018-09-01T09:14:46.776Z,99.90
2018-09-01T09:17:15.264Z,99.90
2018-09-01T09:19:43.602Z,99.90
2018-09-01T09:22:12.076Z,99.90
2018-09-01T09:24:40.408Z,99.90
2018-09-01T09:27:08.799Z,99.90
2018-09-01T09:29:37.114Z,99.90
2018-09-01T09:32:05.504Z,99.90
2018-09-01T09:34:33.963Z,99.90
2018-09-01T09:37:02.246Z,99.90
2018-09-01T09:39:30.571Z,99.90
2018-09-01T09:41:58.957Z,99.90
2018-09-01T09:44:27.271Z,99.90
2018-09-01T09:46:55.617Z,99.90
2018-09-01T09:49:23.995Z,99.90
2018-09-01T09:51:52.452Z,99.90
2018-09-01T09:54:20.831Z,99.90
2018-09-01T09:56:49.141Z,99.90
2018-09-01T09:59:17.554Z,99.90
2018-09-01T10:01:45.938Z,99.90
2018-09-01T10:04:14.327Z,99.90
2018-09-01T10:06:42.689Z,99.90
2018-09-01T10:09:15.521Z,99.90
2018-09-01T10:11:44.403Z,99.90
2018-09-01T10:14:13.213Z,99.90
2018-09-01T10:16:42.160Z,99.90
2018-09-01T10:19:10.568Z,99.90
2018-09-01T10:21:39.089Z,99.90
2018-09-01T10:24:07.689Z,99.90
2018-09-01T10:26:36.079Z,99.90
2018-09-01T10:29:04.402Z,99.90
2018-09-01T10:31:32.751Z,99.90
2018-09-01T10:34:01.115Z,99.90
2018-09-01T10:36:29.484Z,99.90
2018-09-01T10:38:57.835Z,99.90
2018-09-01T10:41:26.268Z,99.90
2018-09-01T10:43:54.670Z,99.90
2018-09-01T10:46:23.105Z,99.90
2018-09-01T10:48:51.526Z,99.90
2018-09-01T10:51:19.872Z,99.90
2018-09-01T10:53:48.229Z,99.90
2018-09-01T10:56:16.670Z,98.70
2018-09-01T10:58:45.059Z,94.40
2018-09-01T11:01:13.422Z,95.80
2018-09-01T11:03:41.721Z,93.60
2018-09-01T11:06:10.117Z,92.10
2018-09-01T11:08:38.502Z,88.10
2018-09-01T11:11:07.177Z,91.00
2018-09-01T11:13:35.561Z,91.90
2018-09-01T11:16:03.972Z,92.00
2018-09-01T11:18:32.316Z,91.70
2018-09-01T11:21:00.770Z,90.80
2018-09-01T11:23:29.071Z,89.20
2018-09-01T11:25:57.493Z,88.30
2018-09-01T11:28:25.898Z,87.20
2018-09-01T11:30:54.306Z,87.50
2018-09-01T11:33:22.656Z,88.20
2018-09-01T11:35:51.034Z,92.20
2018-09-01T11:38:19.413Z,89.60
2018-09-01T11:40:47.744Z,90.70
2018-09-01T11:43:16.187Z,88.60
2018-09-01T11:45:44.465Z,88.40
2018-09-01T11:48:12.898Z,84.20
2018-09-01T11:50:41.225Z,85.30
2018-09-01T11:53:09.666Z,85.50
2018-09-01T11:55:37.938Z,86.90
2018-09-01T11:58:06.319Z,86.90
2018-09-01T12:00:34.679Z,85.70
2018-09-01T12:03:03.026Z,88.20
2018-09-01T12:05:31.387Z,87.90
2018-09-01T12:07:59.751Z,86.30
2018-09-01T12:10:28.211Z,87.80
2018-09-01T12:12:56.604Z,87.50
2018-09-01T12:15:24.971Z,85.60
2018-09-01T12:17:53.300Z,81.40
2018-09-01T12:20:21.675Z,77.00
2018-09-01T12:22:50.041Z,79.90
2018-09-01T12:25:18.401Z,79.10
2018-09-01T12:27:46.741Z,80.70
2018-09-01T12:30:15.158Z,79.70
2018-09-01T12:32:43.511Z,82.20
2018-09-01T12:35:11.923Z,82.90
2018-09-01T12:37:40.262Z,82.80
2018-09-01T12:40:08.629Z,81.30
2018-09-01T12:42:36.983Z,79.80
2018-09-01T12:45:05.928Z,82.80
2018-09-01T12:47:33.615Z,80.50
2018-09-01T12:50:02.008Z,80.60
2018-09-01T12:52:31.399Z,81.30
2018-09-01T12:54:59.803Z,81.50
2018-09-01T12:57:27.477Z,80.60
2018-09-01T12:59:55.106Z,79.80
2018-09-01T13:02:24.959Z,78.70
2018-09-01T13:04:53.382Z,79.00
2018-09-01T13:07:21.795Z,78.90
2018-09-01T13:09:50.155Z,79.20
2018-09-01T13:12:18.504Z,81.40
2018-09-01T13:14:46.882Z,80.10
2018-09-01T13:17:15.189Z,80.80
2018-09-01T13:19:44.175Z,80.50
2018-09-01T13:22:12.489Z,77.40
2018-09-01T13:24:40.881Z,76.00
2018-09-01T13:27:09.248Z,74.80
2018-09-01T13:29:37.615Z,71.40
2018-09-01T13:32:06.159Z,71.20
2018-09-01T13:34:34.581Z,69.00
2018-09-01T13:37:02.973Z,67.90
2018-09-01T13:39:31.338Z,67.60
2018-09-01T13:41:59.676Z,64.00
2018-09-01T13:44:28.021Z,62.00
2018-09-01T13:46:56.351Z,62.40
2018-09-01T13:49:24.732Z,59.10
2018-09-01T13:51:53.133Z,59.50
2018-09-01T13:54:21.490Z,60.70
2018-09-01T13:56:49.887Z,62.70
2018-09-01T13:59:18.251Z,62.60
2018-09-01T14:01:46.576Z,60.70
2018-09-01T14:04:15.033Z,61.70
2018-09-01T14:06:43.385Z,59.90
2018-09-01T14:09:11.862Z,59.20
2018-09-01T14:11:40.333Z,57.10
2018-09-01T14:14:08.738Z,57.50
2018-09-01T14:16:37.164Z,56.20
2018-09-01T14:19:05.844Z,58.90
2018-09-01T14:21:34.190Z,58.10
2018-09-01T14:24:02.524Z,57.20
2018-09-01T14:26:30.906Z,57.10
2018-09-01T14:28:59.268Z,57.80
2018-09-01T14:31:27.608Z,58.60
2018-09-01T14:33:56.000Z,57.80
2018-09-01T14:36:24.440Z,59.00
2018-09-01T14:38:52.753Z,57.60
2018-09-01T14:41:21.221Z,58.50
2018-09-01T14:43:49.654Z,60.80
2018-09-01T14:46:18.080Z,61.60
2018-09-01T14:48:46.419Z,60.40
2018-09-01T14:51:14.796Z,58.40
2018-09-01T14:53:43.139Z,58.60
2018-09-01T14:56:11.510Z,56.50
2018-09-01T14:58:39.847Z,58.70
2018-09-01T15:01:08.219Z,59.60
2018-09-01T15:03:36.596Z,60.30
2018-09-01T15:06:05.092Z,60.00
2018-09-01T15:08:33.437Z,58.70
2018-09-01T15:11:01.810Z,59.10
2018-09-01T15:13:30.246Z,58.00
2018-09-01T15:15:58.686Z,57.40
2018-09-01T15:18:27.043Z,57.50
2018-09-01T15:20:55.428Z,57.40
2018-09-01T15:23:23.897Z,57.50
2018-09-01T15:25:52.281Z,57.20
2018-09-01T15:28:20.703Z,57.30
2018-09-01T15:30:49.065Z,58.20
2018-09-01T15:33:17.408Z,56.70
2018-09-01T15:35:45.777Z,57.90
2018-09-01T15:38:14.142Z,57.30
2018-09-01T15:40:42.536Z,57.80
2018-09-01T15:43:10.919Z,56.70
2018-09-01T15:45:39.243Z,57.50
2018-09-01T15:48:07.601Z,59.20
2018-09-01T15:50:36.050Z,58.70
2018-09-01T15:53:04.364Z,58.90
2018-09-01T15:55:32.773Z,58.70
2018-09-01T15:58:01.135Z,59.00
2018-09-01T16:00:29.568Z,58.70
2018-09-01T16:02:57.991Z,59.20
2018-09-01T16:05:26.452Z,59.40
2018-09-01T16:07:54.820Z,58.50
2018-09-01T16:10:23.149Z,57.80
2018-09-01T16:12:51.552Z,58.50
2018-09-01T16:15:20.037Z,60.10
2018-09-01T16:17:48.614Z,59.50
2018-09-01T16:20:17.040Z,59.90
2018-09-01T16:22:45.388Z,59.60
2018-09-01T16:25:13.800Z,60.30
2018-09-01T16:27:42.242Z,58.80
2018-09-01T16:30:10.645Z,59.20
2018-09-01T16:32:39.003Z,61.90
2018-09-01T16:35:07.384Z,60.60
2018-09-01T16:37:35.908Z,60.70
2018-09-01T16:40:04.764Z,60.90
2018-09-01T16:42:33.133Z,60.10
2018-09-01T16:45:01.487Z,61.00
2018-09-01T16:47:29.875Z,61.60
2018-09-01T16:49:58.232Z,59.90
2018-09-01T16:52:26.950Z,61.90
2018-09-01T16:54:55.271Z,61.80
2018-09-01T16:57:23.732Z,61.80
2018-09-01T16:59:52.168Z,62.20
2018-09-01T17:02:20.857Z,62.50
2018-09-01T17:04:49.655Z,62.60
2018-09-01T17:07:21.266Z,63.00
2018-09-01T17:09:51.310Z,63.80
2018-09-01T17:12:21.684Z,62.70
2018-09-01T17:14:52.446Z,63.80
2018-09-01T17:17:23.244Z,63.60
2018-09-01T17:19:51.808Z,63.70
2018-09-01T17:22:26.309Z,63.80
2018-09-01T17:24:54.663Z,65.00
2018-09-01T17:27:23.076Z,64.60
2018-09-01T17:29:51.481Z,64.00
2018-09-01T17:32:19.891Z,66.10
2018-09-01T17:34:48.692Z,66.80
2018-09-01T17:37:17.077Z,65.30
2018-09-01T17:39:45.428Z,65.40
2018-09-01T17:42:13.809Z,66.10
2018-09-01T17:44:42.228Z,66.90
2018-09-01T17:47:10.612Z,66.70
2018-09-01T17:49:39.031Z,67.30
2018-09-01T17:52:07.348Z,68.50
2018-09-01T17:54:35.965Z,69.10
2018-09-01T17:57:04.452Z,69.80
2018-09-01T17:59:32.820Z,70.40
2018-09-01T18:02:01.364Z,71.40
2018-09-01T18:04:29.779Z,71.80
2018-09-01T18:06:58.229Z,72.00
2018-09-01T18:09:26.629Z,73.00
2018-09-01T18:11:55.093Z,74.10
2018-09-01T18:14:23.494Z,77.10
2018-09-01T18:16:51.900Z,75.20
2018-09-01T18:19:20.427Z,77.00
2018-09-01T18:21:48.794Z,77.20
2018-09-01T18:24:17.179Z,77.10
2018-09-01T18:26:45.579Z,78.00
2018-09-01T18:29:13.953Z,79.80
2018-09-01T18:31:42.351Z,78.70
2018-09-01T18:34:10.720Z,81.10
2018-09-01T18:36:39.157Z,82.30
2018-09-01T18:39:08.932Z,83.80
2018-09-01T18:41:37.396Z,85.40
2018-09-01T18:44:05.781Z,86.90
2018-09-01T18:46:34.197Z,88.40
2018-09-01T18:49:02.929Z,88.60
2018-09-01T18:51:31.701Z,90.00
2018-09-01T18:54:00.091Z,90.10
2018-09-01T18:56:28.508Z,90.40
2018-09-01T18:58:56.939Z,90.90
2018-09-01T19:01:25.325Z,91.70
2018-09-01T19:03:53.689Z,92.30
2018-09-01T19:06:22.144Z,93.20
2018-09-01T19:08:50.546Z,94.10
2018-09-01T19:11:18.916Z,94.90
2018-09-01T19:13:47.336Z,95.40
2018-09-01T19:16:15.639Z,95.90
2018-09-01T19:18:44.047Z,95.90
2018-09-01T19:21:12.537Z,96.60
2018-09-01T19:23:40.886Z,97.70
2018-09-01T19:26:09.304Z,98.30
2018-09-01T19:28:37.759Z,99.20
2018-09-01T19:31:06.178Z,99.40
2018-09-01T19:33:34.592Z,99.70
2018-09-01T19:36:02.968Z,99.80
2018-09-01T19:38:31.365Z,99.90
2018-09-01T19:40:59.922Z,99.90
2018-09-01T19:43:28.297Z,99.90
2018-09-01T19:45:56.837Z,99.90
2018-09-01T19:48:25.282Z,99.90
2018-09-01T19:50:54.463Z,99.90
2018-09-01T19:53:23.105Z,99.90
2018-09-01T19:55:52.214Z,99.90
2018-09-01T19:58:20.988Z,99.90
2018-09-01T20:00:49.841Z,99.90
2018-09-01T20:03:18.322Z,99.90
2018-09-01T20:05:46.728Z,99.90
2018-09-01T20:08:15.224Z,99.50
2018-09-01T20:10:43.778Z,98.90
2018-09-01T20:13:12.467Z,99.00
2018-09-01T20:15:41.252Z,98.90
2018-09-01T20:18:09.984Z,99.10
2018-09-01T20:20:38.462Z,99.20
2018-09-01T20:23:07.204Z,99.90
2018-09-01T20:25:35.574Z,99.50
2018-09-01T20:28:04.004Z,99.70
2018-09-01T20:30:32.589Z,99.90
2018-09-01T20:33:01.441Z,99.90
2018-09-01T20:35:35.130Z,99.90
2018-09-01T20:38:03.512Z,99.90
2018-09-01T20:40:32.244Z,99.90
2018-09-01T20:43:00.889Z,99.90
2018-09-01T20:45:29.440Z,99.90
2018-09-01T20:47:57.866Z,99.90
2018-09-01T20:50:26.231Z,99.90
2018-09-01T20:52:54.583Z,99.90
2018-09-01T20:55:23.057Z,99.90
2018-09-01T20:57:51.612Z,99.90
2018-09-01T21:00:20.129Z,99.90
2018-09-01T21:02:48.888Z,99.90
2018-09-01T21:05:17.258Z,99.90
2018-09-01T21:07:45.674Z,99.90
2018-09-01T21:10:14.093Z,99.90
2018-09-01T21:12:42.583Z,99.90
2018-09-01T21:15:11.200Z,99.90
2018-09-01T21:17:39.622Z,99.90
2018-09-01T21:20:08.184Z,99.90
2018-09-01T21:22:36.553Z,99.90
2018-09-01T21:25:05.131Z,99.90
2018-09-01T21:27:33.586Z,99.90
2018-09-01T21:30:02.249Z,99.90
2018-09-01T21:32:30.817Z,99.90
2018-09-01T21:34:59.297Z,99.90
2018-09-01T21:37:27.800Z,99.90
2018-09-01T21:39:56.204Z,99.90
2018-09-01T21:42:24.558Z,99.90
2018-09-01T21:44:53.133Z,99.90
2018-09-01T21:47:21.851Z,99.90
2018-09-01T21:49:50.480Z,99.90
2018-09-01T21:52:18.955Z,99.90
2018-09-01T21:54:47.406Z,99.90
2018-09-01T21:57:15.763Z,99.90
2018-09-01T21:59:44.180Z,99.90
2018-09-01T22:02:18.305Z,99.90
2018-09-01T22:04:52.130Z,99.90
2018-09-01T22:07:21.732Z,99.90
2018-09-01T22:09:51.659Z,99.90
2018-09-01T22:12:22.799Z,99.90
2018-09-01T22:14:54.293Z,99.90
2018-09-01T22:17:24.071Z,99.90
2018-09-01T22:19:54.677Z,99.90
2018-09-01T22:22:29.363Z,99.90
2018-09-01T22:24:58.111Z,99.90
2018-09-01T22:27:26.483Z,99.90
2018-09-01T22:29:54.900Z,99.90
2018-09-01T22:32:31.547Z,99.90
2018-09-01T22:35:02.441Z,99.90
2018-09-01T22:37:31.934Z,99.90
2018-09-01T22:40:02.577Z,99.90
2018-09-01T22:42:33.792Z,99.90
2018-09-01T22:45:04.870Z,99.90
2018-09-01T22:47:42.296Z,99.90
2018-09-01T22:50:13.099Z,99.90
2018-09-01T22:52:44.029Z,99.90
2018-09-01T22:55:12.996Z,99.90
2018-09-01T22:57:41.394Z,99.90
2018-09-01T23:00:09.924Z,99.90
2018-09-01T23:02:38.277Z,99.90
2018-09-01T23:05:06.648Z,99.90
2018-09-01T23:07:35.024Z,99.90
2018-09-01T23:10:03.420Z,99.90
2018-09-01T23:12:31.798Z,99.90
2018-09-01T23:15:00.224Z,99.90
2018-09-01T23:17:28.555Z,99.90
2018-09-01T23:19:56.948Z,99.90
2018-09-01T23:22:25.223Z,99.90
2018-09-01T23:24:53.561Z,99.90
2018-09-01T23:27:21.928Z,99.90
2018-09-01T23:29:50.281Z,99.90
2018-09-01T23:32:18.626Z,99.90
2018-09-01T23:34:47.053Z,99.90
2018-09-01T23:37:15.388Z,99.90
2018-09-01T23:39:43.721Z,99.90
2018-09-01T23:42:12.134Z,99.90
2018-09-01T23:44:40.493Z,99.90
2018-09-01T23:47:08.860Z,99.90
2018-09-01T23:49:37.181Z,99.90
2018-09-01T23:52:05.542Z,99.90
2018-09-01T23:54:33.913Z,99.90
2018-09-01T23:57:02.288Z,99.90
2018-09-01T23:59:30.603Z,99.90
